createdAt,value
2022-10-25T00:00:31.567Z,38.36
2022-10-25T00:01:31.663Z,52.38
2022-10-25T00:02:31.592Z,39.59
2022-10-25T00:03:31.551Z,50.28
2022-10-25T00:04:31.570Z,37.44
2022-10-25T00:05:31.536Z,54.47
2022-10-25T00:06:31.534Z,57.01
2022-10-25T00:07:31.513Z,47.14
2022-10-25T00:08:31.504Z,51.22
2022-10-25T00:09:31.523Z,50.65
2022-10-25T00:10:31.494Z,39.78
2022-10-25T00:11:31.484Z,51.05
2022-10-25T00:12:31.522Z,53.67
2022-10-25T00:13:31.469Z,36.99
2022-10-25T00:14:31.496Z,47.86
2022-10-25T00:15:31.458Z,38.55
2022-10-25T00:16:31.439Z,53.99
2022-10-25T00:17:31.436Z,46.56
2022-10-25T00:18:31.423Z,47.14
2022-10-25T00:19:31.444Z,46.09
2022-10-25T00:20:31.410Z,53.75
2022-10-25T00:21:31.413Z,45.91
2022-10-25T00:22:31.394Z,36.64
2022-10-25T00:23:31.387Z,37.05
2022-10-25T00:24:31.415Z,36.64
2022-10-25T00:25:31.371Z,37.69
2022-10-25T00:26:31.363Z,41.84
2022-10-25T00:27:31.353Z,44.12
2022-10-25T00:28:31.346Z,49.50
2022-10-25T00:29:31.375Z,40.98
2022-10-25T00:30:31.332Z,45.71
2022-10-25T00:31:31.333Z,39.20
2022-10-25T00:32:31.313Z,53.76
2022-10-25T00:33:31.314Z,45.02
2022-10-25T00:34:31.337Z,60.37
2022-10-25T00:35:31.288Z,53.64
2022-10-25T00:36:31.299Z,39.48
2022-10-25T00:37:31.314Z,46.66
2022-10-25T00:38:31.274Z,40.17
2022-10-25T00:39:31.284Z,39.38
2022-10-25T00:40:31.253Z,47.36
2022-10-25T00:41:31.243Z,49.62
2022-10-25T00:42:31.223Z,52.88
2022-10-25T00:43:32.229Z,52.20
2022-10-25T00:44:31.257Z,48.77
2022-10-25T00:45:31.210Z,55.58
2022-10-25T00:46:31.211Z,58.90
2022-10-25T00:47:31.205Z,48.18
2022-10-25T00:48:31.188Z,52.60
2022-10-25T00:49:31.224Z,54.63
2022-10-25T00:50:31.172Z,51.93
2022-10-25T00:51:31.162Z,49.14
2022-10-25T00:52:31.161Z,52.34
2022-10-25T00:53:31.148Z,47.30
2022-10-25T00:54:31.140Z,54.36
2022-10-25T00:55:31.154Z,55.05
2022-10-25T00:56:31.124Z,49.30
2022-10-25T00:57:31.114Z,44.58
2022-10-25T00:58:31.107Z,47.15
2022-10-25T00:59:31.125Z,44.31
2022-10-25T01:00:31.095Z,57.24
2022-10-25T01:01:31.133Z,55.68
2022-10-25T01:02:31.166Z,58.41
2022-10-25T01:03:31.071Z,58.31
2022-10-25T01:04:31.095Z,52.29
2022-10-25T01:05:31.049Z,50.78
2022-10-25T01:06:31.050Z,53.32
2022-10-25T01:07:31.050Z,48.39
2022-10-25T01:08:31.025Z,41.54
2022-10-25T01:09:31.053Z,56.08
2022-10-25T01:10:31.009Z,59.20
2022-10-25T01:11:31.002Z,48.13
2022-10-25T01:12:30.997Z,36.90
2022-10-25T01:13:30.992Z,42.55
2022-10-25T01:14:31.020Z,44.89
2022-10-25T01:15:30.998Z,41.65
2022-10-25T01:16:30.965Z,49.48
2022-10-25T01:17:30.965Z,54.73
2022-10-25T01:18:30.964Z,44.89
2022-10-25T01:19:31.069Z,49.56
2022-10-25T01:20:30.941Z,61.74
2022-10-25T01:21:30.934Z,52.74
2022-10-25T01:22:30.932Z,51.90
2022-10-25T01:23:30.916Z,54.57
2022-10-25T01:24:30.906Z,50.76
2022-10-25T01:25:30.924Z,51.51
2022-10-25T01:26:30.905Z,49.32
2022-10-25T01:27:30.895Z,41.04
2022-10-25T01:28:30.881Z,51.47
2022-10-25T01:29:30.868Z,58.61
2022-10-25T01:30:30.891Z,57.46
2022-10-25T01:31:30.851Z,42.12
2022-10-25T01:32:30.846Z,51.62
2022-10-25T01:33:30.838Z,61.63
2022-10-25T01:34:30.835Z,47.13
2022-10-25T01:35:30.848Z,52.68
2022-10-25T01:36:30.831Z,45.12
2022-10-25T01:37:30.810Z,48.59
2022-10-25T01:38:30.803Z,54.08
2022-10-25T01:39:30.798Z,60.03
2022-10-25T01:40:30.812Z,41.11
2022-10-25T01:41:30.782Z,49.99
2022-10-25T01:42:30.780Z,40.52
2022-10-25T01:43:30.764Z,43.28
2022-10-25T01:44:30.794Z,49.81
2022-10-25T01:45:30.777Z,37.54
2022-10-25T01:46:30.742Z,41.75
2022-10-25T01:47:30.733Z,55.74
2022-10-25T01:48:30.730Z,48.63
2022-10-25T01:49:30.722Z,46.02
2022-10-25T01:50:30.738Z,50.45
2022-10-25T01:51:30.703Z,37.71
2022-10-25T01:52:30.701Z,46.76
2022-10-25T01:53:30.686Z,49.91
2022-10-25T01:54:30.693Z,52.86
2022-10-25T01:55:30.719Z,55.83
2022-10-25T01:56:30.663Z,50.34
2022-10-25T01:57:30.655Z,54.54
2022-10-25T01:58:30.656Z,46.69
2022-10-25T01:59:30.647Z,58.28
2022-10-25T02:00:30.733Z,57.44
2022-10-25T02:01:30.759Z,48.64
2022-10-25T02:02:30.621Z,48.87
2022-10-25T02:03:30.610Z,59.54
2022-10-25T02:04:30.609Z,49.97
2022-10-25T02:05:30.593Z,49.99
2022-10-25T02:06:30.615Z,49.94
2022-10-25T02:07:30.575Z,53.32
2022-10-25T02:08:30.574Z,47.14
2022-10-25T02:09:30.560Z,39.84
2022-10-25T02:10:30.556Z,47.67
2022-10-25T02:11:30.572Z,55.41
2022-10-25T02:12:30.546Z,49.03
2022-10-25T02:13:30.533Z,45.56
2022-10-25T02:14:30.524Z,42.85
2022-10-25T02:15:30.520Z,51.36
2022-10-25T02:16:30.537Z,56.28
2022-10-25T02:17:30.504Z,50.55
2022-10-25T02:19:30.483Z,52.53
2022-10-25T02:20:30.478Z,54.18
2022-10-25T02:21:30.487Z,49.52
2022-10-25T02:22:30.464Z,45.43
2022-10-25T02:23:30.458Z,43.49
2022-10-25T02:24:30.446Z,54.54
2022-10-25T02:25:30.432Z,61.39
2022-10-25T02:26:30.455Z,47.53
2022-10-25T02:27:30.424Z,59.44
2022-10-25T02:28:30.420Z,47.05
2022-10-25T02:29:30.413Z,47.55
2022-10-25T02:30:30.396Z,51.61
2022-10-25T02:31:30.407Z,53.12
2022-10-25T02:32:30.376Z,58.28
2022-10-25T02:33:30.381Z,58.46
2022-10-25T02:34:30.363Z,46.19
2022-10-25T02:35:30.367Z,51.08
2022-10-25T02:36:30.369Z,49.00
2022-10-25T02:37:30.345Z,57.73
2022-10-25T02:38:30.323Z,55.16
2022-10-25T02:39:31.580Z,49.99
2022-10-25T02:40:30.311Z,42.74
2022-10-25T02:41:30.329Z,63.29
2022-10-25T02:42:30.295Z,55.02
2022-10-25T02:43:30.296Z,59.08
2022-10-25T02:44:30.286Z,48.57
2022-10-25T02:45:30.283Z,55.85
2022-10-25T02:46:30.294Z,56.80
2022-10-25T02:47:30.256Z,50.80
2022-10-25T02:48:30.248Z,44.40
2022-10-25T02:49:30.243Z,58.14
2022-10-25T02:50:30.240Z,59.67
2022-10-25T02:51:30.261Z,56.58
2022-10-25T02:52:30.225Z,48.69
2022-10-25T02:53:30.222Z,47.31
2022-10-25T02:54:30.205Z,45.40
2022-10-25T02:55:30.215Z,51.30
2022-10-25T02:56:30.221Z,52.49
2022-10-25T02:57:30.183Z,59.18
2022-10-25T02:58:30.181Z,55.26
2022-10-25T02:59:30.156Z,52.81
2022-10-25T03:00:30.195Z,55.20
2022-10-25T03:01:30.331Z,49.62
2022-10-25T03:02:30.139Z,53.76
2022-10-25T03:03:30.142Z,54.53
2022-10-25T03:04:30.125Z,56.50
2022-10-25T03:05:30.118Z,56.60
2022-10-25T03:06:30.141Z,53.90
2022-10-25T03:07:30.106Z,54.16
2022-10-25T03:08:30.137Z,58.57
2022-10-25T03:09:30.085Z,57.23
2022-10-25T03:10:30.082Z,55.60
2022-10-25T03:11:30.098Z,58.85
2022-10-25T03:12:30.066Z,57.22
2022-10-25T03:13:30.051Z,60.33
2022-10-25T03:14:30.048Z,59.40
2022-10-25T03:15:30.038Z,53.83
2022-10-25T03:16:30.060Z,55.28
2022-10-25T03:17:30.021Z,56.59
2022-10-25T03:18:30.021Z,56.18
2022-10-25T03:19:30.006Z,62.82
2022-10-25T03:20:30.006Z,54.26
2022-10-25T03:21:30.019Z,55.74
2022-10-25T03:22:29.991Z,58.01
2022-10-25T03:23:29.978Z,56.63
2022-10-25T03:24:29.966Z,49.15
2022-10-25T03:25:29.956Z,58.55
2022-10-25T03:26:29.986Z,58.22
2022-10-25T03:27:29.945Z,56.53
2022-10-25T03:28:29.934Z,54.63
2022-10-25T03:29:29.930Z,59.51
2022-10-25T03:30:29.915Z,55.60
2022-10-25T03:31:29.933Z,55.03
2022-10-25T03:32:29.910Z,59.35
2022-10-25T03:34:29.888Z,58.76
2022-10-25T03:35:29.880Z,59.12
2022-10-25T03:36:29.902Z,56.66
2022-10-25T03:37:29.859Z,50.80
2022-10-25T03:38:29.857Z,58.14
2022-10-25T03:39:29.848Z,61.93
2022-10-25T03:40:29.835Z,59.11
2022-10-25T03:41:29.832Z,63.71
2022-10-25T03:42:29.850Z,59.41
2022-10-25T03:43:29.819Z,60.85
2022-10-25T03:44:29.814Z,56.12
2022-10-25T03:45:29.801Z,56.29
2022-10-25T03:46:29.798Z,53.52
2022-10-25T03:47:29.814Z,61.63
2022-10-25T03:48:29.772Z,61.17
2022-10-25T03:49:29.769Z,60.92
2022-10-25T03:50:29.762Z,56.80
2022-10-25T03:51:29.753Z,59.59
2022-10-25T03:52:29.770Z,50.40
2022-10-25T03:53:29.741Z,58.28
2022-10-25T03:54:29.728Z,56.05
2022-10-25T03:55:29.728Z,60.27
2022-10-25T03:56:29.715Z,55.89
2022-10-25T03:57:29.734Z,54.42
2022-10-25T03:58:29.694Z,59.71
2022-10-25T03:59:29.691Z,53.03
2022-10-25T04:00:29.731Z,57.57
2022-10-25T04:01:29.774Z,59.57
2022-10-25T04:02:29.685Z,54.23
2022-10-25T04:03:30.667Z,59.58
2022-10-25T04:04:29.655Z,56.57
2022-10-25T04:05:29.649Z,55.13
2022-10-25T04:06:29.638Z,60.95
2022-10-25T04:07:29.659Z,56.79
2022-10-25T04:08:29.626Z,59.77
2022-10-25T04:09:29.619Z,61.47
2022-10-25T04:10:29.612Z,54.38
2022-10-25T04:11:29.605Z,56.34
2022-10-25T04:12:29.620Z,59.62
2022-10-25T04:13:29.591Z,60.71
2022-10-25T04:14:29.575Z,58.87
2022-10-25T04:15:29.570Z,58.13
2022-10-25T04:16:29.562Z,51.88
2022-10-25T04:17:29.599Z,64.24
2022-10-25T04:18:29.546Z,60.70
2022-10-25T04:19:29.544Z,59.63
2022-10-25T04:20:29.535Z,60.84
2022-10-25T04:21:29.522Z,61.46
2022-10-25T04:22:29.571Z,60.99
2022-10-25T04:23:29.502Z,62.03
2022-10-25T04:24:29.503Z,59.09
2022-10-25T04:25:29.493Z,60.04
2022-10-25T04:26:29.491Z,59.82
2022-10-25T04:27:29.504Z,62.32
2022-10-25T04:28:29.470Z,58.58
2022-10-25T04:29:29.463Z,61.21
2022-10-25T04:30:29.451Z,62.63
2022-10-25T04:31:29.472Z,63.00
2022-10-25T04:32:29.471Z,54.87
2022-10-25T04:33:29.441Z,62.75
2022-10-25T04:34:29.427Z,62.05
2022-10-25T04:35:29.419Z,62.37
2022-10-25T04:36:29.411Z,60.03
2022-10-25T04:37:29.431Z,63.97
2022-10-25T04:38:29.393Z,61.44
2022-10-25T04:39:29.388Z,62.45
2022-10-25T04:40:29.380Z,53.59
2022-10-25T04:41:29.371Z,63.19
2022-10-25T04:42:29.388Z,61.61
2022-10-25T04:43:29.351Z,65.55
2022-10-25T04:44:30.351Z,58.09
2022-10-25T04:45:29.343Z,55.55
2022-10-25T04:46:29.330Z,62.71
2022-10-25T04:47:29.352Z,62.78
2022-10-25T04:48:29.316Z,63.88
2022-10-25T04:49:29.313Z,62.46
2022-10-25T04:50:29.295Z,63.83
2022-10-25T04:51:29.299Z,63.89
2022-10-25T04:52:29.313Z,62.44
2022-10-25T04:53:29.273Z,64.64
2022-10-25T04:54:29.261Z,62.48
2022-10-25T04:55:30.251Z,58.57
2022-10-25T04:56:29.245Z,63.30
2022-10-25T04:57:29.237Z,61.22
2022-10-25T04:58:31.421Z,60.78
2022-10-25T04:59:29.220Z,63.15
2022-10-25T05:00:29.216Z,57.79
2022-10-25T05:01:29.305Z,63.01
2022-10-25T05:02:29.220Z,61.46
2022-10-25T05:03:29.249Z,62.97
2022-10-25T05:04:29.182Z,61.28
2022-10-25T05:05:29.173Z,60.29
2022-10-25T05:06:29.172Z,61.74
2022-10-25T05:07:29.161Z,62.17
2022-10-25T05:08:29.172Z,62.29
2022-10-25T05:09:29.135Z,62.20
2022-10-25T05:10:29.137Z,61.04
2022-10-25T05:11:29.163Z,63.51
2022-10-25T05:12:29.118Z,58.12
2022-10-25T05:13:29.137Z,62.29
2022-10-25T05:14:29.103Z,63.73
2022-10-25T05:15:29.094Z,62.88
2022-10-25T05:16:29.083Z,60.01
2022-10-25T05:17:29.070Z,62.90
2022-10-25T05:18:29.093Z,59.01
2022-10-25T05:19:29.063Z,60.55
2022-10-25T05:20:29.053Z,62.72
2022-10-25T05:21:29.243Z,63.68
2022-10-25T05:22:29.042Z,60.86
2022-10-25T05:23:29.061Z,62.31
2022-10-25T05:24:29.026Z,62.50
2022-10-25T05:25:29.020Z,61.46
2022-10-25T05:26:29.011Z,59.20
2022-10-25T05:27:29.000Z,62.22
2022-10-25T05:28:29.027Z,59.43
2022-10-25T05:29:28.986Z,58.95
2022-10-25T05:30:28.977Z,59.34
2022-10-25T05:31:28.966Z,63.04
2022-10-25T05:32:28.966Z,62.20
2022-10-25T05:33:28.986Z,61.88
2022-10-25T05:34:28.945Z,61.65
2022-10-25T05:35:28.935Z,60.82
2022-10-25T05:36:28.931Z,62.21
2022-10-25T05:37:28.927Z,59.32
2022-10-25T05:38:28.916Z,60.77
2022-10-25T05:39:28.930Z,61.45
2022-10-25T05:40:28.899Z,62.75
2022-10-25T05:41:30.814Z,62.02
2022-10-25T05:42:28.886Z,61.68
2022-10-25T05:43:28.875Z,62.39
2022-10-25T05:44:28.896Z,63.26
2022-10-25T05:45:28.864Z,62.02
2022-10-25T05:46:28.852Z,62.14
2022-10-25T05:47:28.845Z,61.81
2022-10-25T05:48:28.838Z,60.57
2022-10-25T05:49:28.855Z,62.02
2022-10-25T05:50:28.886Z,61.53
2022-10-25T05:51:33.057Z,61.83
2022-10-25T05:52:30.813Z,59.27
2022-10-25T05:53:28.800Z,63.19
2022-10-25T05:54:28.819Z,61.30
2022-10-25T05:55:28.788Z,60.54
2022-10-25T05:56:28.775Z,59.43
2022-10-25T05:57:28.767Z,62.70
2022-10-25T05:58:28.760Z,62.46
2022-10-25T05:59:28.776Z,58.32
2022-10-25T06:00:28.871Z,60.40
2022-10-25T06:01:28.855Z,58.91
2022-10-25T06:02:28.760Z,60.52
2022-10-25T06:03:28.719Z,58.78
2022-10-25T06:04:28.735Z,60.31
2022-10-25T06:05:28.705Z,59.10
2022-10-25T06:06:28.697Z,59.92
2022-10-25T06:07:28.686Z,59.15
2022-10-25T06:08:28.681Z,58.51
2022-10-25T06:09:28.702Z,62.36
2022-10-25T06:10:28.700Z,58.66
2022-10-25T06:11:28.657Z,60.13
2022-10-25T06:12:28.652Z,57.81
2022-10-25T06:13:28.666Z,62.01
2022-10-25T06:14:28.660Z,61.66
2022-10-25T06:15:28.646Z,61.43
2022-10-25T06:16:28.670Z,60.82
2022-10-25T06:17:29.558Z,61.35
2022-10-25T06:18:28.686Z,62.22
2022-10-25T06:19:28.635Z,61.54
2022-10-25T06:20:29.638Z,61.35
2022-10-25T06:21:28.613Z,59.47
2022-10-25T06:22:28.576Z,61.06
2022-10-25T06:23:28.566Z,58.02
2022-10-25T06:24:28.598Z,57.63
2022-10-25T06:25:28.554Z,57.89
2022-10-25T06:26:28.545Z,60.92
2022-10-25T06:27:28.538Z,59.13
2022-10-25T06:28:28.528Z,58.46
2022-10-25T06:29:28.551Z,58.23
2022-10-25T06:30:28.590Z,59.33
2022-10-25T06:31:28.511Z,60.12
2022-10-25T06:32:28.499Z,60.60
2022-10-25T06:33:28.491Z,59.04
2022-10-25T06:34:28.520Z,61.75
2022-10-25T06:35:28.483Z,61.44
2022-10-25T06:36:28.466Z,57.01
2022-10-25T06:37:28.468Z,59.78
2022-10-25T06:38:28.453Z,61.62
2022-10-25T06:39:28.476Z,58.66
2022-10-25T06:40:28.441Z,55.94
2022-10-25T06:41:28.430Z,60.04
2022-10-25T06:42:28.424Z,60.31
2022-10-25T06:43:28.422Z,60.39
2022-10-25T06:44:28.408Z,57.21
2022-10-25T06:45:28.427Z,55.62
2022-10-25T06:46:28.396Z,57.53
2022-10-25T06:47:28.388Z,60.91
2022-10-25T06:48:28.379Z,61.16
2022-10-25T06:49:28.400Z,57.71
2022-10-25T06:50:28.364Z,59.26
2022-10-25T06:51:28.360Z,58.05
2022-10-25T06:52:28.347Z,59.66
2022-10-25T06:53:28.340Z,61.70
2022-10-25T06:54:28.331Z,57.60
2022-10-25T06:55:28.353Z,60.50
2022-10-25T06:56:28.316Z,63.02
2022-10-25T06:57:28.311Z,58.80
2022-10-25T06:58:28.302Z,61.75
2022-10-25T06:59:28.294Z,59.56
2022-10-25T07:00:28.317Z,53.97
2022-10-25T07:01:28.372Z,51.65
2022-10-25T07:02:28.375Z,55.33
2022-10-25T07:03:28.265Z,57.88
2022-10-25T07:04:28.255Z,60.80
2022-10-25T07:05:28.279Z,58.18
2022-10-25T07:06:28.310Z,62.15
2022-10-25T07:07:28.230Z,58.88
2022-10-25T07:08:28.223Z,53.74
2022-10-25T07:09:28.215Z,56.61
2022-10-25T07:10:28.236Z,58.23
2022-10-25T07:11:28.204Z,60.08
2022-10-25T07:12:28.195Z,56.86
2022-10-25T07:13:28.187Z,60.50
2022-10-25T07:14:28.180Z,60.35
2022-10-25T07:15:29.208Z,60.46
2022-10-25T07:16:28.168Z,57.28
2022-10-25T07:17:28.152Z,56.33
2022-10-25T07:18:28.138Z,61.68
2022-10-25T07:19:28.136Z,56.22
2022-10-25T07:20:28.158Z,60.94
2022-10-25T07:21:28.118Z,58.53
2022-10-25T07:22:28.114Z,59.11
2022-10-25T07:23:28.108Z,59.20
2022-10-25T07:24:28.097Z,60.44
2022-10-25T07:25:28.112Z,58.89
2022-10-25T07:26:28.083Z,61.65
2022-10-25T07:27:28.069Z,59.75
2022-10-25T07:28:29.067Z,56.03
2022-10-25T07:29:28.065Z,53.98
2022-10-25T07:30:28.081Z,60.83
2022-10-25T07:31:28.047Z,61.19
2022-10-25T07:32:28.033Z,57.81
2022-10-25T07:33:28.027Z,61.67
2022-10-25T07:34:28.020Z,58.63
2022-10-25T07:35:28.037Z,59.46
2022-10-25T07:36:28.006Z,61.26
2022-10-25T07:37:27.995Z,59.37
2022-10-25T07:38:28.100Z,60.25
2022-10-25T07:39:27.983Z,58.77
2022-10-25T07:40:28.000Z,53.73
2022-10-25T07:41:27.968Z,61.85
2022-10-25T07:42:27.961Z,61.23
2022-10-25T07:43:27.949Z,60.91
2022-10-25T07:44:27.947Z,59.57
2022-10-25T07:45:30.395Z,59.25
2022-10-25T07:46:27.927Z,63.40
2022-10-25T07:47:27.919Z,61.87
2022-10-25T07:48:27.912Z,59.70
2022-10-25T07:49:27.908Z,60.60
2022-10-25T07:50:27.916Z,61.23
2022-10-25T07:51:27.887Z,59.95
2022-10-25T07:52:27.885Z,59.96
2022-10-25T07:53:27.878Z,59.37
2022-10-25T07:54:27.860Z,59.77
2022-10-25T07:55:28.881Z,61.25
2022-10-25T07:56:27.849Z,60.36
2022-10-25T07:57:27.840Z,60.27
2022-10-25T07:58:27.830Z,56.25
2022-10-25T07:59:27.825Z,63.17
2022-10-25T08:00:27.850Z,61.03
2022-10-25T08:01:27.881Z,57.61
2022-10-25T08:02:27.804Z,55.69
2022-10-25T08:03:27.836Z,60.17
2022-10-25T08:04:27.838Z,62.20
2022-10-25T08:05:27.802Z,62.99
2022-10-25T08:06:27.764Z,61.34
2022-10-25T08:07:27.758Z,61.56
2022-10-25T08:08:27.751Z,62.99
2022-10-25T08:09:37.768Z,62.53
2022-10-25T08:10:29.761Z,61.61
2022-10-25T08:11:27.725Z,61.18
2022-10-25T08:12:27.721Z,60.62
2022-10-25T08:13:27.711Z,64.58
2022-10-25T08:14:27.708Z,58.42
2022-10-25T08:15:27.720Z,57.43
2022-10-25T08:16:27.693Z,59.92
2022-10-25T08:17:27.683Z,55.06
2022-10-25T08:18:27.677Z,58.34
2022-10-25T08:19:27.672Z,59.15
2022-10-25T08:20:43.290Z,54.88
2022-10-25T08:21:29.678Z,62.39
2022-10-25T08:22:27.652Z,60.22
2022-10-25T08:23:27.648Z,57.16
2022-10-25T08:24:27.630Z,59.91
2022-10-25T08:25:27.650Z,60.58
2022-10-25T08:26:27.615Z,58.88
2022-10-25T08:27:27.606Z,56.56
2022-10-25T08:28:27.595Z,60.10
2022-10-25T08:29:27.587Z,60.15
2022-10-25T08:30:27.587Z,60.77
2022-10-25T08:31:27.606Z,56.53
2022-10-25T08:32:27.569Z,58.51
2022-10-25T08:33:27.579Z,59.68
2022-10-25T08:34:29.600Z,57.86
2022-10-25T08:35:27.546Z,59.35
2022-10-25T08:36:27.559Z,56.99
2022-10-25T08:37:27.530Z,59.45
2022-10-25T08:38:27.516Z,58.47
2022-10-25T08:39:27.511Z,56.29
2022-10-25T08:40:27.503Z,55.20
2022-10-25T08:41:27.525Z,53.63
2022-10-25T08:42:27.497Z,59.52
2022-10-25T08:43:27.484Z,58.42
2022-10-25T08:44:27.479Z,55.43
2022-10-25T08:45:27.471Z,58.73
2022-10-25T08:46:27.492Z,59.04
2022-10-25T08:47:27.475Z,56.65
2022-10-25T08:48:27.445Z,57.22
2022-10-25T08:49:27.438Z,58.01
2022-10-25T08:50:27.427Z,58.77
2022-10-25T08:51:27.445Z,57.46
2022-10-25T08:52:27.418Z,58.66
2022-10-25T08:53:27.407Z,61.49
2022-10-25T08:54:27.401Z,55.80
2022-10-25T08:55:27.391Z,55.65
2022-10-25T08:56:27.406Z,55.00
2022-10-25T08:57:27.380Z,60.63
2022-10-25T08:58:27.364Z,58.44
2022-10-25T08:59:27.367Z,63.78
2022-10-25T09:00:27.349Z,51.95
2022-10-25T09:01:27.481Z,57.84
2022-10-25T09:02:27.473Z,58.04
2022-10-25T09:03:27.330Z,62.05
2022-10-25T09:04:27.318Z,55.44
2022-10-25T09:05:27.314Z,59.12
2022-10-25T09:06:27.333Z,60.66
2022-10-25T09:07:27.295Z,60.07
2022-10-25T09:08:27.314Z,59.88
2022-10-25T09:09:27.274Z,61.15
2022-10-25T09:10:28.278Z,55.54
2022-10-25T09:11:27.291Z,54.77
2022-10-25T09:12:27.258Z,57.31
2022-10-25T09:13:27.301Z,61.03
2022-10-25T09:14:27.246Z,61.90
2022-10-25T09:15:27.238Z,56.75
2022-10-25T09:16:27.253Z,60.08
2022-10-25T09:17:27.240Z,59.42
2022-10-25T09:18:27.216Z,59.29
2022-10-25T09:19:27.217Z,56.33
2022-10-25T09:20:27.204Z,55.90
2022-10-25T09:21:27.217Z,58.78
2022-10-25T09:22:27.181Z,56.94
2022-10-25T09:23:27.170Z,58.95
2022-10-25T09:24:27.165Z,57.83
2022-10-25T09:25:27.158Z,60.85
2022-10-25T09:26:27.188Z,57.97
2022-10-25T09:27:27.143Z,57.94
2022-10-25T09:28:27.138Z,58.22
2022-10-25T09:29:27.134Z,50.95
2022-10-25T09:30:27.120Z,61.43
2022-10-25T09:31:27.131Z,56.73
2022-10-25T09:32:27.107Z,54.17
2022-10-25T09:33:27.093Z,54.27
2022-10-25T09:34:27.087Z,58.14
2022-10-25T09:35:27.079Z,61.44
2022-10-25T09:36:27.095Z,59.33
2022-10-25T09:37:27.066Z,61.19
2022-10-25T09:38:27.065Z,58.24
2022-10-25T09:39:27.046Z,61.78
2022-10-25T09:40:27.038Z,59.49
2022-10-25T09:41:27.060Z,57.95
2022-10-25T09:42:27.022Z,59.96
2022-10-25T09:43:27.014Z,60.54
2022-10-25T09:44:27.005Z,60.68
2022-10-25T09:45:27.003Z,58.90
2022-10-25T09:46:27.015Z,59.63
2022-10-25T09:47:26.982Z,61.28
2022-10-25T09:48:26.979Z,52.86
2022-10-25T09:49:26.996Z,59.04
2022-10-25T09:50:26.966Z,58.25
2022-10-25T09:51:26.975Z,61.16
2022-10-25T09:52:26.944Z,60.42
2022-10-25T09:53:26.936Z,54.93
2022-10-25T09:54:26.928Z,55.57
2022-10-25T09:55:26.923Z,59.22
2022-10-25T09:56:26.938Z,61.70
2022-10-25T09:57:26.907Z,57.31
2022-10-25T09:58:26.895Z,59.71
2022-10-25T09:59:26.890Z,61.19
2022-10-25T10:00:26.933Z,60.52
2022-10-25T10:01:26.980Z,60.27
2022-10-25T10:02:27.131Z,61.30
2022-10-25T10:03:26.866Z,53.90
2022-10-25T10:04:26.858Z,58.13
2022-10-25T10:05:26.850Z,58.57
2022-10-25T10:06:26.864Z,60.39
2022-10-25T10:07:26.830Z,58.41
2022-10-25T10:08:26.830Z,60.06
2022-10-25T10:09:26.818Z,59.19
2022-10-25T10:10:26.812Z,56.08
2022-10-25T10:11:26.834Z,56.86
2022-10-25T10:12:26.820Z,58.82
2022-10-25T10:13:26.787Z,56.46
2022-10-25T10:14:26.784Z,59.93
2022-10-25T10:15:26.774Z,58.73
2022-10-25T10:16:26.796Z,60.35
2022-10-25T10:17:26.760Z,55.89
2022-10-25T10:18:26.770Z,60.36
2022-10-25T10:19:26.743Z,55.85
2022-10-25T10:20:26.736Z,58.94
2022-10-25T10:21:26.757Z,57.32
2022-10-25T10:22:26.716Z,57.18
2022-10-25T10:23:26.711Z,57.29
2022-10-25T10:24:26.699Z,60.30
2022-10-25T10:25:26.692Z,58.93
2022-10-25T10:26:26.684Z,57.83
2022-10-25T10:27:26.702Z,58.88
2022-10-25T10:28:26.673Z,55.56
2022-10-25T10:29:26.665Z,59.74
2022-10-25T10:30:26.656Z,56.37
2022-10-25T10:31:26.643Z,59.88
2022-10-25T10:32:26.784Z,55.04
2022-10-25T10:33:26.634Z,57.65
2022-10-25T10:34:26.629Z,53.46
2022-10-25T10:35:26.616Z,56.85
2022-10-25T10:36:26.609Z,53.72
2022-10-25T10:37:26.628Z,57.47
2022-10-25T10:38:26.593Z,53.38
2022-10-25T10:39:26.589Z,51.90
2022-10-25T10:40:26.591Z,59.41
2022-10-25T10:41:26.571Z,57.83
2022-10-25T10:42:26.629Z,58.25
2022-10-25T10:43:26.557Z,52.17
2022-10-25T10:44:26.553Z,54.35
2022-10-25T10:45:26.546Z,56.30
2022-10-25T10:46:26.563Z,53.09
2022-10-25T10:47:26.558Z,56.18
2022-10-25T10:48:26.524Z,52.93
2022-10-25T10:49:26.515Z,56.87
2022-10-25T10:50:26.516Z,56.34
2022-10-25T10:51:43.063Z,53.33
2022-10-25T10:52:28.549Z,56.00
2022-10-25T10:53:26.496Z,57.81
2022-10-25T10:54:26.481Z,58.83
2022-10-25T10:55:26.471Z,61.89
2022-10-25T10:56:26.476Z,53.59
2022-10-25T10:57:26.480Z,51.78
2022-10-25T10:58:26.451Z,57.07
2022-10-25T10:59:26.455Z,59.06
2022-10-25T11:00:26.441Z,53.41
2022-10-25T11:01:26.520Z,49.39
2022-10-25T11:02:26.766Z,58.00
2022-10-25T11:03:26.431Z,58.81
2022-10-25T11:04:26.472Z,56.15
2022-10-25T11:05:26.397Z,59.27
2022-10-25T11:06:26.404Z,58.30
2022-10-25T11:07:26.413Z,57.06
2022-10-25T11:08:26.383Z,57.94
2022-10-25T11:09:26.417Z,56.51
2022-10-25T11:10:26.362Z,57.16
2022-10-25T11:11:26.363Z,54.22
2022-10-25T11:12:26.373Z,60.70
2022-10-25T11:13:26.355Z,58.23
2022-10-25T11:14:26.336Z,59.73
2022-10-25T11:15:26.329Z,53.98
2022-10-25T11:16:27.346Z,58.12
2022-10-25T11:17:26.331Z,58.25
2022-10-25T11:18:26.302Z,58.86
2022-10-25T11:19:26.285Z,57.01
2022-10-25T11:20:26.286Z,59.52
2022-10-25T11:21:26.267Z,60.04
2022-10-25T11:22:30.692Z,59.92
2022-10-25T11:23:28.265Z,60.09
2022-10-25T11:24:26.251Z,60.62
2022-10-25T11:25:26.254Z,62.10
2022-10-25T11:26:26.316Z,54.49
2022-10-25T11:27:26.257Z,56.68
2022-10-25T11:28:26.225Z,56.60
2022-10-25T11:29:26.215Z,55.25
2022-10-25T11:30:26.210Z,60.70
2022-10-25T11:31:26.200Z,57.43
2022-10-25T11:32:26.259Z,55.65
2022-10-25T11:33:26.194Z,60.17
2022-10-25T11:34:26.178Z,57.61
2022-10-25T11:35:26.166Z,56.73
2022-10-25T11:36:26.163Z,59.55
2022-10-25T11:37:26.182Z,58.19
2022-10-25T11:38:26.151Z,55.77
2022-10-25T11:39:26.145Z,56.92
2022-10-25T11:40:26.133Z,58.23
2022-10-25T11:41:26.119Z,58.28
2022-10-25T11:42:26.236Z,54.01
2022-10-25T11:43:26.136Z,57.50
2022-10-25T11:44:26.097Z,61.58
2022-10-25T11:45:26.092Z,61.28
2022-10-25T11:46:26.088Z,60.85
2022-10-25T11:47:26.095Z,59.08
2022-10-25T11:48:26.109Z,57.58
2022-10-25T11:49:26.063Z,59.33
2022-10-25T11:50:26.056Z,58.64
2022-10-25T11:51:26.078Z,59.79
2022-10-25T11:52:26.041Z,59.38
2022-10-25T11:53:26.049Z,56.69
2022-10-25T11:54:26.023Z,59.20
2022-10-25T11:55:26.011Z,57.29
2022-10-25T11:56:26.004Z,57.76
2022-10-25T11:57:26.007Z,54.65
2022-10-25T11:58:26.092Z,56.00
2022-10-25T11:59:25.977Z,56.42
2022-10-25T12:01:26.021Z,61.81
2022-10-25T12:02:26.001Z,58.46
2022-10-25T12:03:25.982Z,57.55
2022-10-25T12:04:28.584Z,55.98
2022-10-25T12:05:25.948Z,57.46
2022-10-25T12:06:25.928Z,61.25
2022-10-25T12:07:25.920Z,56.47
2022-10-25T12:08:25.938Z,56.90
2022-10-25T12:09:25.913Z,57.61
2022-10-25T12:10:25.900Z,58.74
2022-10-25T12:11:25.891Z,57.28
2022-10-25T12:12:25.878Z,58.28
2022-10-25T12:13:25.906Z,58.30
2022-10-25T12:14:25.942Z,56.43
2022-10-25T12:15:25.865Z,60.79
2022-10-25T12:16:25.853Z,57.79
2022-10-25T12:17:25.843Z,56.33
2022-10-25T12:18:26.393Z,59.94
2022-10-25T12:19:25.828Z,60.34
2022-10-25T12:20:25.878Z,59.26
2022-10-25T12:21:25.815Z,59.99
2022-10-25T12:22:25.805Z,57.79
2022-10-25T12:23:25.820Z,58.59
2022-10-25T12:24:25.793Z,58.52
2022-10-25T12:25:25.780Z,60.80
2022-10-25T12:26:25.775Z,57.14
2022-10-25T12:27:25.782Z,54.47
2022-10-25T12:28:25.784Z,56.36
2022-10-25T12:29:25.744Z,51.30
2022-10-25T12:31:25.747Z,61.24
2022-10-25T12:32:25.735Z,54.79
2022-10-25T12:33:25.743Z,59.65
2022-10-25T12:34:25.708Z,58.31
2022-10-25T12:35:25.720Z,60.26
2022-10-25T12:36:26.686Z,61.18
2022-10-25T12:37:25.683Z,58.75
2022-10-25T12:38:25.704Z,55.28
2022-10-25T12:39:25.669Z,58.76
2022-10-25T12:41:25.659Z,58.38
2022-10-25T12:42:25.648Z,59.53
2022-10-25T12:43:25.663Z,61.50
2022-10-25T12:44:25.630Z,61.89
2022-10-25T12:45:25.668Z,58.29
2022-10-25T12:46:25.730Z,54.89
2022-10-25T12:47:25.619Z,60.07
2022-10-25T12:48:25.631Z,60.09
2022-10-25T12:49:25.596Z,60.31
2022-10-25T12:50:25.589Z,57.79
2022-10-25T12:51:25.584Z,60.72
2022-10-25T12:52:25.572Z,60.73
2022-10-25T12:53:25.594Z,59.02
2022-10-25T12:54:25.562Z,56.31
2022-10-25T12:55:25.553Z,60.47
2022-10-25T12:56:25.550Z,60.17
2022-10-25T12:57:25.530Z,61.44